createdAt,value
2022-12-03T00:00:41.622Z,13.63
2022-12-03T00:03:46.611Z,11.93
2022-12-03T00:06:51.772Z,11.38
2022-12-03T00:09:56.257Z,10.32
2022-12-03T00:13:00.966Z,11.65
2022-12-03T00:16:05.565Z,12.90
2022-12-03T00:19:09.963Z,12.75
2022-12-03T00:22:14.543Z,12.27
2022-12-03T00:25:19.171Z,11.93
2022-12-03T00:28:23.993Z,11.73
2022-12-03T00:31:28.621Z,10.50
2022-12-03T00:34:32.887Z,10.15
2022-12-03T00:37:37.251Z,9.18
2022-12-03T00:40:42.052Z,10.82
2022-12-03T00:43:46.649Z,12.30
2022-12-03T00:46:51.085Z,12.30
2022-12-03T00:49:55.866Z,12.10
2022-12-03T00:53:00.310Z,12.20
2022-12-03T00:56:04.901Z,11.23
2022-12-03T00:59:09.808Z,10.13
2022-12-03T01:02:14.712Z,10.13
2022-12-03T01:05:20.613Z,9.90
2022-12-03T01:08:25.789Z,10.20
2022-12-03T01:11:38.995Z,10.18
2022-12-03T01:14:43.563Z,10.43
2022-12-03T01:17:47.991Z,13.13
2022-12-03T01:20:52.787Z,13.65
2022-12-03T01:23:57.876Z,11.25
2022-12-03T01:27:02.467Z,13.60
2022-12-03T01:30:08.959Z,14.13
2022-12-03T01:33:13.537Z,16.10
2022-12-03T01:36:18.199Z,11.93
2022-12-03T01:39:23.256Z,12.90
2022-12-03T01:42:33.196Z,10.93
2022-12-03T01:45:37.705Z,11.80
2022-12-03T01:48:42.215Z,13.43
2022-12-03T01:51:49.014Z,13.13
2022-12-03T01:55:00.691Z,14.98
2022-12-03T01:58:05.412Z,12.23
2022-12-03T02:01:17.830Z,10.32
2022-12-03T02:04:23.813Z,11.45
2022-12-03T02:07:32.122Z,11.38
2022-12-03T02:10:38.280Z,15.00
2022-12-03T02:13:43.929Z,14.15
2022-12-03T02:16:49.013Z,13.00
2022-12-03T02:19:54.892Z,15.18
2022-12-03T02:23:02.253Z,14.52
2022-12-03T02:26:06.922Z,15.13
2022-12-03T02:29:12.066Z,14.00
2022-12-03T02:32:16.904Z,15.18
2022-12-03T02:35:30.322Z,12.98
2022-12-03T02:38:36.290Z,13.20
2022-12-03T02:41:58.942Z,14.85
2022-12-03T02:45:19.615Z,11.98
2022-12-03T02:48:27.538Z,11.57
2022-12-03T02:51:33.486Z,13.73
2022-12-03T02:54:38.224Z,14.57
2022-12-03T02:57:44.557Z,15.43
2022-12-03T03:00:51.347Z,14.75
2022-12-03T03:03:56.465Z,14.70
2022-12-03T03:07:01.326Z,14.63
2022-12-03T03:10:09.171Z,14.48
2022-12-03T03:13:17.438Z,16.70
2022-12-03T03:16:22.484Z,16.98
2022-12-03T03:19:27.676Z,17.33
2022-12-03T03:22:39.118Z,14.68
2022-12-03T03:26:09.761Z,18.70
2022-12-03T03:29:14.805Z,18.17
2022-12-03T03:32:19.878Z,14.60
2022-12-03T03:35:25.491Z,16.90
2022-12-03T03:38:31.807Z,16.23
2022-12-03T03:41:37.058Z,15.40
2022-12-03T03:44:41.981Z,15.63
2022-12-03T03:47:46.867Z,16.10
2022-12-03T03:50:52.022Z,17.50
2022-12-03T03:53:57.600Z,14.40
2022-12-03T03:57:02.403Z,15.25
2022-12-03T04:00:09.031Z,14.00
2022-12-03T04:03:14.026Z,14.10
2022-12-03T04:06:18.749Z,14.95
2022-12-03T04:09:23.367Z,15.88
2022-12-03T04:12:46.455Z,13.88
2022-12-03T04:15:51.214Z,14.77
2022-12-03T04:18:56.169Z,11.90
2022-12-03T04:22:19.330Z,10.55
2022-12-03T04:25:42.331Z,12.25
2022-12-03T04:28:49.492Z,12.27
2022-12-03T04:32:12.317Z,12.77
2022-12-03T04:35:35.317Z,16.67
2022-12-03T04:38:39.846Z,15.25
2022-12-03T04:41:44.302Z,13.52
2022-12-03T04:44:49.175Z,12.73
2022-12-03T04:47:53.850Z,14.68
2022-12-03T04:50:58.129Z,14.25
2022-12-03T04:54:03.007Z,13.63
2022-12-03T04:57:09.258Z,12.52
2022-12-03T05:00:14.629Z,18.92
2022-12-03T05:03:19.051Z,16.48
2022-12-03T05:06:23.336Z,14.45
2022-12-03T05:09:33.930Z,16.90
2022-12-03T05:12:45.847Z,16.40
2022-12-03T05:15:52.349Z,14.30
2022-12-03T05:18:57.048Z,12.93
2022-12-03T05:22:01.620Z,11.60
2022-12-03T05:25:07.006Z,13.85
2022-12-03T05:28:11.722Z,14.43
2022-12-03T05:31:16.941Z,16.27
2022-12-03T05:34:21.643Z,17.77
2022-12-03T05:37:26.030Z,17.50
2022-12-03T05:40:30.493Z,15.02
2022-12-03T05:43:35.181Z,12.70
2022-12-03T05:46:39.944Z,15.20
2022-12-03T05:49:46.027Z,14.90
2022-12-03T05:52:51.596Z,15.23
2022-12-03T05:55:56.100Z,12.68
2022-12-03T05:59:00.376Z,13.60
2022-12-03T06:02:05.177Z,12.00
2022-12-03T06:05:12.391Z,16.20
2022-12-03T06:08:16.766Z,14.95
2022-12-03T06:11:21.339Z,14.05
2022-12-03T06:14:25.762Z,14.07
2022-12-03T06:17:30.192Z,15.73
2022-12-03T06:20:34.638Z,13.05
2022-12-03T06:23:44.665Z,12.18
2022-12-03T06:26:49.410Z,10.10
2022-12-03T06:29:53.904Z,9.23
2022-12-03T06:32:58.531Z,7.72
2022-12-03T06:36:03.115Z,9.48
2022-12-03T06:39:07.704Z,10.35
2022-12-03T06:42:12.359Z,15.43
2022-12-03T06:45:17.042Z,14.25
2022-12-03T06:48:21.686Z,13.35
2022-12-03T06:51:26.218Z,13.95
2022-12-03T06:54:31.027Z,13.23
2022-12-03T06:57:35.592Z,14.90
2022-12-03T07:00:40.381Z,12.98
2022-12-03T07:03:45.944Z,13.07
2022-12-03T07:06:50.517Z,14.38
2022-12-03T07:09:55.174Z,12.57
2022-12-03T07:12:59.999Z,11.15
2022-12-03T07:16:05.073Z,11.90
2022-12-03T07:19:10.973Z,11.23
2022-12-03T07:22:15.555Z,12.77
2022-12-03T07:25:23.473Z,14.05
2022-12-03T07:28:28.106Z,13.35
2022-12-03T07:31:32.872Z,16.15
2022-12-03T07:34:38.930Z,17.38
2022-12-03T07:37:43.289Z,17.25
2022-12-03T07:40:47.472Z,17.33
2022-12-03T07:43:52.829Z,19.88
2022-12-03T07:46:58.128Z,15.73
2022-12-03T07:50:03.163Z,16.65
2022-12-03T07:53:07.553Z,20.13
2022-12-03T07:56:13.237Z,21.85
2022-12-03T07:59:18.182Z,18.55
2022-12-03T08:02:22.917Z,20.77
2022-12-03T08:05:29.547Z,22.08
2022-12-03T08:08:33.911Z,18.50
2022-12-03T08:11:38.493Z,20.17
2022-12-03T08:14:44.389Z,20.33
2022-12-03T08:17:59.783Z,23.55
2022-12-03T08:21:09.914Z,24.15
2022-12-03T08:24:21.838Z,21.05
2022-12-03T08:27:26.277Z,22.52
2022-12-03T08:30:30.608Z,21.70
2022-12-03T08:33:37.061Z,24.15
2022-12-03T08:36:41.673Z,22.30
2022-12-03T08:39:54.792Z,20.75
2022-12-03T08:42:59.448Z,16.45
2022-12-03T08:46:03.978Z,19.63
2022-12-03T08:49:09.288Z,19.55
2022-12-03T08:52:19.702Z,16.90
2022-12-03T08:55:39.158Z,17.25
2022-12-03T08:58:47.063Z,16.65
2022-12-03T09:01:53.548Z,20.98
2022-12-03T09:04:59.091Z,19.40
2022-12-03T09:08:03.403Z,18.38
2022-12-03T09:11:08.125Z,16.60
2022-12-03T09:14:18.256Z,16.27
2022-12-03T09:17:23.175Z,17.10
2022-12-03T09:20:27.604Z,18.83
2022-12-03T09:23:32.239Z,18.52
2022-12-03T09:26:37.071Z,17.73
2022-12-03T09:29:41.687Z,17.75
2022-12-03T09:32:46.118Z,18.95
2022-12-03T09:35:50.654Z,16.30
2022-12-03T09:38:55.962Z,16.08
2022-12-03T09:42:00.887Z,15.70
2022-12-03T09:45:12.557Z,15.52
2022-12-03T09:48:20.678Z,14.05
2022-12-03T09:51:32.896Z,17.58
2022-12-03T09:54:42.794Z,16.38
2022-12-03T09:57:55.801Z,16.20
2022-12-03T10:01:00.330Z,13.80
2022-12-03T10:04:05.196Z,11.63
2022-12-03T10:07:10.007Z,16.27
2022-12-03T10:10:20.305Z,14.68
2022-12-03T10:13:31.609Z,12.93
2022-12-03T10:16:37.720Z,14.10
2022-12-03T10:19:43.050Z,12.45
2022-12-03T10:22:50.839Z,12.40
2022-12-03T10:26:03.077Z,13.52
2022-12-03T10:29:20.330Z,11.63
2022-12-03T10:32:38.523Z,11.00
2022-12-03T10:35:43.037Z,12.30
2022-12-03T10:39:14.605Z,11.10
2022-12-03T10:42:20.222Z,10.75
2022-12-03T10:45:25.251Z,13.10
2022-12-03T10:48:30.018Z,13.63
2022-12-03T10:51:34.989Z,12.13
2022-12-03T10:54:39.517Z,13.25
2022-12-03T10:57:46.068Z,12.65
2022-12-03T11:00:58.842Z,9.55
2022-12-03T11:04:05.041Z,9.32
2022-12-03T11:07:19.686Z,8.13
2022-12-03T11:10:24.022Z,10.75
2022-12-03T11:13:34.858Z,11.07
2022-12-03T11:16:42.025Z,8.88
2022-12-03T11:19:48.641Z,10.40
2022-12-03T11:22:58.038Z,10.82
2022-12-03T11:26:02.795Z,14.32
2022-12-03T11:29:14.800Z,13.82
2022-12-03T11:32:38.427Z,12.82
2022-12-03T11:36:05.192Z,12.45
2022-12-03T11:39:09.966Z,12.38
2022-12-03T11:42:26.579Z,10.35
2022-12-03T11:45:36.921Z,11.98
2022-12-03T11:48:46.408Z,10.73
2022-12-03T11:51:51.441Z,8.88
2022-12-03T11:55:25.384Z,10.10
2022-12-03T11:58:30.717Z,7.82
2022-12-03T12:01:39.322Z,8.52
2022-12-03T12:04:47.018Z,12.23
2022-12-03T12:07:52.373Z,10.57
2022-12-03T12:10:57.360Z,12.27
2022-12-03T12:14:12.737Z,12.25
2022-12-03T12:17:36.569Z,14.25
2022-12-03T12:20:41.218Z,13.48
2022-12-03T12:23:46.267Z,13.23
2022-12-03T12:26:51.766Z,14.77
2022-12-03T12:30:14.264Z,15.57
2022-12-03T12:33:23.385Z,18.27
2022-12-03T12:36:28.478Z,13.73
2022-12-03T12:39:32.835Z,11.52
2022-12-03T12:42:42.987Z,11.77
2022-12-03T12:45:47.573Z,13.93
2022-12-03T12:48:59.320Z,12.73
2022-12-03T12:52:14.017Z,18.67
2022-12-03T12:55:20.077Z,15.55
2022-12-03T12:58:26.249Z,16.20
2022-12-03T13:01:32.361Z,13.70
2022-12-03T13:04:40.063Z,14.93
2022-12-03T13:07:45.151Z,14.65
2022-12-03T13:10:52.966Z,13.95
2022-12-03T13:13:57.926Z,13.70
2022-12-03T13:17:19.734Z,13.77
2022-12-03T13:20:24.509Z,12.95
2022-12-03T13:23:35.204Z,10.75
2022-12-03T13:26:40.195Z,11.23
2022-12-03T13:30:15.722Z,11.68
2022-12-03T13:33:26.607Z,16.27
2022-12-03T13:36:44.117Z,12.48
2022-12-03T13:39:57.106Z,12.68
2022-12-03T13:43:14.278Z,12.27
2022-12-03T13:46:18.963Z,14.60
2022-12-03T13:49:24.640Z,13.60
2022-12-03T13:52:34.690Z,13.90
2022-12-03T13:55:46.544Z,12.35
2022-12-03T13:58:51.119Z,14.02
2022-12-03T14:01:56.077Z,15.10
2022-12-03T14:05:00.987Z,14.98
2022-12-03T14:08:06.291Z,13.63
2022-12-03T14:11:30.913Z,16.48
2022-12-03T14:14:35.763Z,19.58
2022-12-03T14:17:40.525Z,17.75
2022-12-03T14:20:46.550Z,20.05
2022-12-03T14:23:52.889Z,21.50
2022-12-03T14:26:57.686Z,20.58
2022-12-03T14:30:03.560Z,20.70
2022-12-03T14:33:08.944Z,17.45
2022-12-03T14:36:13.784Z,16.48
2022-12-03T14:39:18.622Z,15.88
2022-12-03T14:42:23.449Z,14.02
2022-12-03T14:45:29.812Z,14.80
2022-12-03T14:48:34.387Z,17.38
2022-12-03T14:51:38.836Z,20.40
2022-12-03T14:54:44.797Z,14.43
2022-12-03T14:57:49.522Z,16.35
2022-12-03T15:00:53.919Z,17.90
2022-12-03T15:03:59.911Z,15.25
2022-12-03T15:07:05.127Z,14.50
2022-12-03T15:10:10.218Z,13.95
2022-12-03T15:13:15.033Z,16.55
2022-12-03T15:16:19.644Z,16.83
2022-12-03T15:19:24.374Z,18.75
2022-12-03T15:22:28.760Z,15.35
2022-12-03T15:25:34.301Z,15.23
2022-12-03T15:28:38.744Z,15.95
2022-12-03T15:31:43.428Z,12.68
2022-12-03T15:34:51.019Z,14.80
2022-12-03T15:37:55.650Z,17.98
2022-12-03T15:41:20.406Z,14.52
2022-12-03T15:44:26.541Z,13.18
2022-12-03T15:47:31.494Z,13.85
2022-12-03T15:50:40.107Z,16.75
2022-12-03T15:53:45.389Z,16.13
2022-12-03T15:57:09.197Z,17.35
2022-12-03T16:00:15.116Z,16.52
2022-12-03T16:03:20.617Z,17.00
2022-12-03T16:06:25.249Z,23.27
2022-12-03T16:09:30.072Z,19.02
2022-12-03T16:12:34.857Z,18.40
2022-12-03T16:15:39.536Z,19.98
2022-12-03T16:18:43.979Z,19.92
2022-12-03T16:21:48.479Z,18.08
2022-12-03T16:24:53.485Z,19.88
2022-12-03T16:27:58.473Z,19.00
2022-12-03T16:31:03.108Z,18.60
2022-12-03T16:34:07.730Z,14.82
2022-12-03T16:37:12.412Z,16.85
2022-12-03T16:40:24.670Z,18.55
2022-12-03T16:43:29.794Z,17.60
2022-12-03T16:46:34.655Z,17.42
2022-12-03T16:49:39.442Z,16.08
2022-12-03T16:52:46.001Z,18.35
2022-12-03T16:55:50.857Z,17.30
2022-12-03T16:58:55.694Z,17.58
2022-12-03T17:02:00.320Z,19.38
2022-12-03T17:05:05.385Z,17.42
2022-12-03T17:08:10.423Z,19.27
2022-12-03T17:11:15.336Z,18.92
2022-12-03T17:14:20.222Z,16.83
2022-12-03T17:17:25.490Z,15.95
2022-12-03T17:20:31.577Z,16.58
2022-12-03T17:23:35.956Z,16.65
2022-12-03T17:26:41.989Z,20.15
2022-12-03T17:29:46.400Z,18.33
2022-12-03T17:32:51.513Z,19.70
2022-12-03T17:35:56.409Z,22.13
2022-12-03T17:39:01.416Z,27.15
2022-12-03T17:42:05.873Z,25.58
2022-12-03T17:45:11.359Z,26.58
2022-12-03T17:48:16.185Z,25.85
2022-12-03T17:51:21.207Z,24.70
2022-12-03T17:54:43.280Z,19.58
2022-12-03T17:57:50.730Z,19.67
2022-12-03T18:01:00.475Z,18.10
2022-12-03T18:04:07.747Z,17.98
2022-12-03T18:07:12.661Z,25.10
2022-12-03T18:10:17.876Z,21.13
2022-12-03T18:13:22.497Z,18.38
2022-12-03T18:16:28.084Z,21.60
2022-12-03T18:19:32.638Z,17.75
2022-12-03T18:22:37.468Z,18.70
2022-12-03T18:25:42.468Z,19.83
2022-12-03T18:28:47.101Z,18.40
2022-12-03T18:31:52.254Z,18.83
2022-12-03T18:34:57.667Z,22.08
2022-12-03T18:38:02.162Z,20.88
2022-12-03T18:41:07.497Z,18.50
2022-12-03T18:44:12.379Z,20.13
2022-12-03T18:47:21.392Z,20.33
2022-12-03T18:50:26.145Z,20.05
2022-12-03T18:53:30.494Z,21.80
2022-12-03T18:56:36.806Z,22.42
2022-12-03T18:59:41.965Z,25.15
2022-12-03T19:03:02.284Z,21.83
2022-12-03T19:06:18.687Z,27.60
2022-12-03T19:09:24.210Z,22.55
2022-12-03T19:12:29.331Z,22.48
2022-12-03T19:15:37.531Z,25.85
2022-12-03T19:18:41.923Z,21.90
2022-12-03T19:21:46.762Z,20.10
2022-12-03T19:24:51.821Z,20.17
2022-12-03T19:27:57.307Z,22.17
2022-12-03T19:31:08.233Z,21.35
2022-12-03T19:34:13.300Z,23.00
2022-12-03T19:37:18.341Z,23.55
2022-12-03T19:40:23.409Z,20.48
2022-12-03T19:43:29.030Z,22.88
2022-12-03T19:46:33.456Z,23.10
2022-12-03T19:49:38.094Z,23.35
2022-12-03T19:52:42.584Z,21.35
2022-12-03T19:55:47.977Z,26.20
2022-12-03T19:58:56.951Z,25.13
2022-12-03T20:02:02.004Z,21.77
2022-12-03T20:05:06.914Z,22.88
2022-12-03T20:08:11.790Z,21.45
2022-12-03T20:11:22.391Z,23.20
2022-12-03T20:14:26.924Z,18.10
2022-12-03T20:17:31.410Z,16.10
2022-12-03T20:20:35.814Z,20.67
2022-12-03T20:23:41.134Z,19.83
2022-12-03T20:26:46.343Z,21.92
2022-12-03T20:29:51.385Z,24.02
2022-12-03T20:32:55.989Z,20.83
2022-12-03T20:36:01.130Z,21.50
2022-12-03T20:39:07.528Z,17.77
2022-12-03T20:42:12.237Z,19.80
2022-12-03T20:45:17.420Z,18.00
2022-12-03T20:48:22.594Z,20.58
2022-12-03T20:51:30.211Z,21.60
2022-12-03T20:54:35.250Z,21.52
2022-12-03T20:57:40.207Z,21.48
2022-12-03T21:00:44.730Z,20.75
2022-12-03T21:03:50.489Z,22.70
2022-12-03T21:06:55.308Z,22.95
2022-12-03T21:09:59.739Z,22.55
2022-12-03T21:13:04.347Z,21.48
2022-12-03T21:16:12.228Z,21.52
2022-12-03T21:19:20.395Z,22.88
2022-12-03T21:22:24.761Z,18.30
2022-12-03T21:25:29.153Z,23.38
2022-12-03T21:28:34.329Z,22.75
2022-12-03T21:31:40.114Z,23.63
2022-12-03T21:34:45.143Z,21.40
2022-12-03T21:37:50.709Z,19.10
2022-12-03T21:40:56.933Z,21.75
2022-12-03T21:44:02.103Z,22.80
2022-12-03T21:47:12.968Z,24.10
2022-12-03T21:50:18.805Z,21.02
2022-12-03T21:53:23.807Z,25.67
2022-12-03T21:56:31.840Z,27.92
2022-12-03T21:59:36.532Z,27.33
2022-12-03T22:02:41.394Z,25.75
2022-12-03T22:05:46.515Z,21.30
2022-12-03T22:08:51.579Z,21.48
2022-12-03T22:11:59.227Z,19.90
2022-12-03T22:15:05.405Z,22.00
2022-12-03T22:18:10.324Z,21.95
2022-12-03T22:21:20.251Z,23.15
2022-12-03T22:24:25.006Z,22.85
2022-12-03T22:27:30.100Z,20.30
2022-12-03T22:30:34.975Z,19.25
2022-12-03T22:33:39.626Z,25.70
2022-12-03T22:36:44.561Z,22.58
2022-12-03T22:39:49.195Z,19.67
2022-12-03T22:42:53.897Z,23.85
2022-12-03T22:45:58.292Z,27.45
2022-12-03T22:49:07.172Z,21.00
2022-12-03T22:52:11.985Z,24.35
2022-12-03T22:55:16.696Z,21.48
2022-12-03T22:58:21.753Z,22.10
2022-12-03T23:01:32.762Z,23.40
2022-12-03T23:04:37.755Z,23.23
2022-12-03T23:07:42.615Z,23.08
2022-12-03T23:10:51.502Z,22.27
2022-12-03T23:13:59.086Z,24.15
2022-12-03T23:17:04.799Z,29.63
2022-12-03T23:20:10.275Z,32.72
2022-12-03T23:23:15.994Z,28.85
2022-12-03T23:26:20.938Z,27.25
2022-12-03T23:29:25.449Z,28.30
2022-12-03T23:32:30.142Z,22.90
2022-12-03T23:35:34.666Z,27.73
2022-12-03T23:38:39.959Z,25.30
2022-12-03T23:41:44.814Z,21.27
2022-12-03T23:44:49.624Z,21.17
2022-12-03T23:47:58.232Z,19.55
2022-12-03T23:51:16.057Z,17.50
2022-12-03T23:54:20.560Z,23.13
2022-12-03T23:57:25.158Z,29.60
